Trenton, Nebraska
Current Conditions -  °F | °C
As of 8:53 AM on Thursday 30 Oct 2014 (Local Time) from KMCK Reporting Station
Clear Clear  
Wind Chill: 32°   Ceiling: Unl
Heat Index: 40°   Visibility: 10mi
Dew Point: 27°   Wind: 15mph
Humidity: 60%   Direction: 290°WNW
Pressure: 30.23"   Gusts: NA
Location:  40.18°N, 101.01°W
Report Text: KMCK 301353Z AUTO 29013KT 10SM CLR 04/M03 A3023 RMK AO2 SLP241 T00441028
Loading
Personal Weather Stations






























Interactive Weather Map
Tropical Storm Tracking
New forecast layout! Learn more

10-Day Weather Forecast

Advertisements
Track Severe Weather on mobile